Time;durP1;ratioP1;P1;durP2;ratioP2;P2;SDS_P1;SDS_P2;PMS_P1;PMS_P2;Temp;Humidity;BMP_temperature;BMP_pressure;BME280_temperature;BME280_humidity;BME280_pressure;Samples;Min_cycle;Max_cycle;Signal;HPM_P1;HPM_P2
2024/04/14 00:00:16;;;;;;;14.87;10.60;;;12.00;99.90;;;;;;5442232;26;20677;-70
2024/04/14 00:02:46;;;;;;;19.47;12.37;;;12.20;99.90;;;;;;5442418;26;20521;-69
2024/04/14 00:05:13;;;;;;;15.37;10.77;;;11.90;99.90;;;;;;5442851;26;20511;-71
2024/04/14 00:07:43;;;;;;;15.50;11.13;;;11.80;99.90;;;;;;5442817;26;20475;-71
2024/04/14 00:10:13;;;;;;;19.40;11.07;;;11.80;99.90;;;;;;5429131;26;20463;-69
2024/04/14 00:12:42;;;;;;;17.40;11.13;;;12.10;99.90;;;;;;5443583;26;20448;-70
2024/04/14 00:15:10;;;;;;;15.80;9.60;;;12.10;99.90;;;;;;5428827;26;20535;-70
2024/04/14 00:17:39;;;;;;;16.20;10.03;;;12.00;99.90;;;;;;5442948;26;20544;-70
2024/04/14 00:20:10;;;;;;;16.37;10.17;;;12.00;99.90;;;;;;5443275;26;20546;-70
2024/04/14 00:22:40;;;;;;;16.33;10.43;;;12.00;99.90;;;;;;5443253;26;21182;-70
2024/04/14 00:25:07;;;;;;;14.67;9.37;;;11.90;99.90;;;;;;5442196;26;20857;-71
2024/04/14 00:27:39;;;;;;;14.07;9.70;;;12.10;99.90;;;;;;5443302;26;20873;-70
2024/04/14 00:30:07;;;;;;;17.30;11.97;;;12.00;99.90;;;;;;5444743;26;20463;-70
2024/04/14 00:32:37;;;;;;;14.07;9.90;;;11.90;99.90;;;;;;5442796;26;20508;-70
2024/04/14 00:35:04;;;;;;;17.13;11.20;;;11.80;99.90;;;;;;5442910;26;20499;-69
2024/04/14 00:37:34;;;;;;;14.80;9.73;;;11.80;99.90;;;;;;5442602;26;21016;-70
2024/04/14 00:40:03;;;;;;;14.17;9.10;;;12.10;99.90;;;;;;5445209;26;20470;-70
2024/04/14 00:42:33;;;;;;;14.43;10.23;;;12.10;99.90;;;;;;5444823;26;20470;-69
2024/04/14 00:45:03;;;;;;;12.80;9.00;;;12.00;99.90;;;;;;5444021;26;20471;-69
2024/04/14 00:47:32;;;;;;;14.10;9.50;;;11.80;99.90;;;;;;5445200;26;20479;-70
2024/04/14 00:50:00;;;;;;;15.47;9.70;;;11.70;99.90;;;;;;5445243;26;20586;-70
2024/04/14 00:52:29;;;;;;;16.00;9.50;;;11.70;99.90;;;;;;5445243;26;20824;-70
2024/04/14 00:54:56;;;;;;;15.50;9.33;;;11.80;99.90;;;;;;5444953;26;20470;-69
2024/04/14 00:57:27;;;;;;;14.43;9.50;;;11.80;99.90;;;;;;5445281;26;21039;-71
2024/04/14 00:59:56;;;;;;;12.40;8.50;;;11.90;99.90;;;;;;5445155;26;20560;-70
2024/04/14 01:02:28;;;;;;;15.90;9.07;;;11.90;99.90;;;;;;5445867;26;20568;-69
2024/04/14 01:04:55;;;;;;;14.57;8.83;;;12.10;99.90;;;;;;5444808;26;20511;-71
2024/04/14 01:07:26;;;;;;;15.50;9.00;;;11.80;99.90;;;;;;5444415;26;20522;-70
2024/04/14 01:09:53;;;;;;;14.47;10.00;;;11.70;99.90;;;;;;5444814;26;20468;-70
2024/04/14 01:12:23;;;;;;;14.10;8.73;;;11.60;99.90;;;;;;5445542;26;21076;-70
2024/04/14 01:14:50;;;;;;;14.10;9.07;;;11.70;99.90;;;;;;5444460;26;20455;-71
2024/04/14 01:17:20;;;;;;;14.87;9.40;;;11.60;99.90;;;;;;5447122;26;20463;-70
2024/04/14 01:19:50;;;;;;;13.73;8.07;;;11.70;99.90;;;;;;5448546;26;20515;-70
2024/04/14 01:22:20;;;;;;;13.30;8.33;;;11.60;99.90;;;;;;5448246;26;20474;-70
2024/04/14 01:24:48;;;;;;;13.87;9.00;;;11.60;99.90;;;;;;5446933;26;20466;-69
2024/04/14 01:27:20;;;;;;;13.83;9.13;;;11.60;99.90;;;;;;5446880;26;20536;-70
2024/04/14 01:29:47;;;;;;;12.30;8.60;;;11.40;99.90;;;;;;5446929;26;20576;-70
2024/04/14 01:32:17;;;;;;;14.73;8.70;;;11.30;99.90;;;;;;5446187;26;20555;-70
2024/04/14 01:34:44;;;;;;;14.43;9.50;;;11.30;99.90;;;;;;5446263;26;20518;-71
2024/04/14 01:37:14;;;;;;;16.37;10.37;;;11.30;99.90;;;;;;5446759;26;20531;-71
2024/04/14 01:39:41;;;;;;;13.03;9.23;;;11.20;99.90;;;;;;5446754;26;20523;-69
2024/04/14 01:42:11;;;;;;;14.73;10.37;;;11.10;99.90;;;;;;5446986;26;20887;-70
2024/04/14 01:44:41;;;;;;;15.40;9.60;;;11.20;99.90;;;;;;5447208;26;20503;-70
2024/04/14 01:47:11;;;;;;;14.97;10.47;;;11.10;99.90;;;;;;5446834;26;21034;-70
2024/04/14 01:49:38;;;;;;;17.60;11.00;;;11.00;99.90;;;;;;5438994;26;20482;-71
2024/04/14 01:52:08;;;;;;;14.27;9.30;;;11.10;99.90;;;;;;5448536;26;20475;-69
2024/04/14 01:54:35;;;;;;;15.43;10.17;;;11.00;99.90;;;;;;5447784;26;20528;-69
2024/04/14 01:57:05;;;;;;;15.17;10.50;;;11.00;99.90;;;;;;5448040;26;21122;-70
2024/04/14 01:59:32;;;;;;;14.17;9.63;;;11.00;99.90;;;;;;5447653;26;21019;-70
2024/04/14 02:02:04;;;;;;;14.60;9.43;;;11.00;99.90;;;;;;5447705;26;20618;-70
2024/04/14 02:04:32;;;;;;;14.70;10.33;;;11.10;99.90;;;;;;5447280;26;21281;-70
2024/04/14 02:07:02;;;;;;;14.27;9.80;;;11.20;99.90;;;;;;5447514;26;20584;-70
2024/04/14 02:09:30;;;;;;;14.50;10.37;;;11.20;99.90;;;;;;5447407;26;20926;-70
2024/04/14 02:12:00;;;;;;;13.20;9.20;;;11.20;99.90;;;;;;5447374;26;20482;-69
2024/04/14 02:14:27;;;;;;;16.67;10.63;;;11.50;99.90;;;;;;5446623;26;20474;-70
2024/04/14 02:16:57;;;;;;;15.17;10.30;;;11.40;99.90;;;;;;5444634;26;20463;-70
2024/04/14 02:19:26;;;;;;;17.10;10.43;;;11.40;99.90;;;;;;5445428;26;20459;-70
2024/04/14 02:21:56;;;;;;;14.10;9.27;;;11.60;99.90;;;;;;5445955;26;20463;-69
2024/04/14 02:24:23;;;;;;;20.17;10.40;;;11.70;99.90;;;;;;5446775;26;20460;-70
2024/04/14 02:26:53;;;;;;;13.87;9.47;;;11.60;99.90;;;;;;5445464;26;21030;-70
2024/04/14 02:29:21;;;;;;;13.90;9.10;;;11.60;99.90;;;;;;5446951;26;20732;-70
2024/04/14 02:31:51;;;;;;;15.60;10.30;;;11.40;99.90;;;;;;5446566;26;20514;-70
2024/04/14 02:34:18;;;;;;;14.17;9.33;;;11.60;99.90;;;;;;5446261;26;20455;-70
2024/04/14 02:36:50;;;;;;;15.43;8.77;;;11.60;99.90;;;;;;5447239;26;20467;-70
2024/04/14 02:39:17;;;;;;;13.47;9.07;;;11.60;99.90;;;;;;5446483;26;20884;-71
2024/04/14 02:41:47;;;;;;;13.13;8.10;;;11.60;99.90;;;;;;5447349;26;20910;-71
2024/04/14 02:44:14;;;;;;;16.77;8.70;;;11.50;99.90;;;;;;5446752;26;20464;-71
2024/04/14 02:46:46;;;;;;;15.20;9.43;;;11.60;99.90;;;;;;5446844;26;20471;-71
2024/04/14 02:49:13;;;;;;;14.83;8.30;;;11.50;99.90;;;;;;5446562;26;20929;-71
2024/04/14 02:51:44;;;;;;;13.93;8.13;;;11.40;99.90;;;;;;5446631;26;20578;-71
2024/04/14 02:54:13;;;;;;;13.43;8.60;;;11.20;99.90;;;;;;5434404;26;21543;-71
2024/04/14 02:56:43;;;;;;;14.03;8.37;;;11.10;99.90;;;;;;5444900;26;20498;-71
2024/04/14 02:59:10;;;;;;;14.70;9.27;;;11.10;99.90;;;;;;5443053;26;20511;-71
2024/04/14 03:01:40;;;;;;;13.00;8.60;;;11.10;99.90;;;;;;5446836;26;20463;-71
2024/04/14 03:04:07;;;;;;;15.33;8.97;;;11.10;99.90;;;;;;5446256;26;20456;-71
2024/04/14 03:06:37;;;;;;;14.60;8.60;;;11.10;99.90;;;;;;5445939;26;20475;-71
2024/04/14 03:09:04;;;;;;;14.13;9.00;;;11.00;99.90;;;;;;5446067;26;20471;-71
2024/04/14 03:11:36;;;;;;;12.87;8.23;;;11.00;99.90;;;;;;5446701;26;20520;-70
2024/04/14 03:14:03;;;;;;;15.30;9.60;;;11.10;99.90;;;;;;5446533;26;20471;-70
2024/04/14 03:16:33;;;;;;;15.83;9.73;;;11.00;99.90;;;;;;5435736;26;20475;-71
2024/04/14 03:19:01;;;;;;;11.90;8.37;;;11.10;99.90;;;;;;5446044;26;21115;-71
2024/04/14 03:21:31;;;;;;;13.70;8.47;;;11.10;99.90;;;;;;5446551;26;21000;-71
2024/04/14 03:23:58;;;;;;;15.00;8.93;;;11.10;99.90;;;;;;5445967;26;20479;-71
2024/04/14 03:26:27;;;;;;;14.03;8.43;;;11.00;99.90;;;;;;5446458;26;20466;-71
2024/04/14 03:28:57;;;;;;;14.57;9.00;;;11.00;99.90;;;;;;5446009;26;20472;-71
2024/04/14 03:31:27;;;;;;;14.50;8.40;;;10.90;99.90;;;;;;5446180;26;20512;-72
2024/04/14 03:33:54;;;;;;;14.60;8.80;;;10.80;99.90;;;;;;5446053;26;21390;-71
2024/04/14 03:36:24;;;;;;;15.70;8.07;;;10.80;99.90;;;;;;5446544;26;20930;-71
2024/04/14 03:38:54;;;;;;;13.03;8.20;;;10.70;99.90;;;;;;5445081;26;20523;-71
2024/04/14 03:41:24;;;;;;;14.40;8.30;;;10.80;99.90;;;;;;5445865;26;20471;-71
2024/04/14 03:43:54;;;;;;;14.30;8.87;;;10.80;99.90;;;;;;5445859;26;20460;-70
2024/04/14 03:46:26;;;;;;;14.17;9.00;;;10.80;99.90;;;;;;5446114;26;20467;-71
2024/04/14 03:48:53;;;;;;;13.93;9.07;;;10.80;99.90;;;;;;5446405;26;20471;-71
2024/04/14 03:51:23;;;;;;;13.87;9.00;;;10.70;99.90;;;;;;5446644;26;21111;-71
2024/04/14 03:53:50;;;;;;;13.40;7.67;;;10.60;99.90;;;;;;5446013;26;20574;-70
2024/04/14 03:56:20;;;;;;;14.40;8.37;;;10.50;99.90;;;;;;5446089;26;21080;-71
2024/04/14 03:58:49;;;;;;;15.03;8.63;;;10.60;99.90;;;;;;5446144;26;20531;-70
2024/04/14 04:01:18;;;;;;;14.87;9.00;;;10.60;99.90;;;;;;5431490;26;20471;-70
2024/04/14 04:03:51;;;;;;;12.67;7.93;;;11.00;99.90;;;;;;5445618;26;20489;-71
2024/04/14 04:06:21;;;;;;;14.50;9.07;;;10.80;99.90;;;;;;5445877;26;20533;-70
2024/04/14 04:08:48;;;;;;;13.80;8.63;;;10.80;99.90;;;;;;5445233;26;21036;-70
2024/04/14 04:11:18;;;;;;;12.30;7.97;;;10.90;99.90;;;;;;5445648;26;21170;-70
2024/04/14 04:13:45;;;;;;;11.57;7.97;;;11.00;99.90;;;;;;5445632;26;20570;-71
2024/04/14 04:16:15;;;;;;;13.60;8.07;;;11.00;99.90;;;;;;5445745;26;20527;-71
2024/04/14 04:18:42;;;;;;;14.37;8.00;;;10.90;99.90;;;;;;5445449;26;20454;-71
2024/04/14 04:21:15;;;;;;;13.83;9.10;;;10.80;99.90;;;;;;5445649;26;20463;-71
2024/04/14 04:23:42;;;;;;;14.20;9.13;;;10.70;99.90;;;;;;5445512;26;20519;-68
2024/04/14 04:26:11;;;;;;;12.97;8.87;;;10.60;99.90;;;;;;5436886;26;20455;-70
2024/04/14 04:28:38;;;;;;;14.43;8.07;;;10.40;99.90;;;;;;5444765;26;20479;-70
2024/04/14 04:31:14;;;;;;;15.50;8.40;;;10.40;99.90;;;;;;5445186;26;20467;-70
2024/04/14 04:33:42;;;;;;;14.03;8.17;;;10.40;99.90;;;;;;5445074;26;20912;-70
2024/04/14 04:36:17;;;;;;;13.63;8.03;;;10.40;99.90;;;;;;5444903;26;20522;-71
2024/04/14 04:38:44;;;;;;;13.03;7.70;;;10.30;99.90;;;;;;5444506;26;20475;-71
2024/04/14 04:41:15;;;;;;;14.27;8.50;;;10.20;99.90;;;;;;5443026;26;21374;-71
2024/04/14 04:43:42;;;;;;;13.80;8.13;;;10.40;99.90;;;;;;5444541;26;20509;-71
2024/04/14 04:46:12;;;;;;;15.00;7.90;;;10.40;99.90;;;;;;5445184;26;20467;-70
2024/04/14 04:48:39;;;;;;;14.67;8.50;;;10.30;99.90;;;;;;5444635;26;20534;-70
2024/04/14 04:51:09;;;;;;;15.00;9.47;;;10.30;99.90;;;;;;5445792;26;20523;-72
2024/04/14 04:53:39;;;;;;;12.73;7.23;;;10.40;99.90;;;;;;5448201;26;20519;-70
2024/04/14 04:56:09;;;;;;;13.67;7.77;;;10.50;99.90;;;;;;5448024;26;20558;-71
2024/04/14 04:58:36;;;;;;;11.63;7.03;;;10.70;99.90;;;;;;5447944;26;20529;-71
2024/04/14 05:01:06;;;;;;;12.63;7.80;;;10.50;99.90;;;;;;5448108;26;20470;-71
2024/04/14 05:03:33;;;;;;;13.80;7.60;;;10.50;99.90;;;;;;5447956;26;20500;-71
2024/04/14 05:06:05;;;;;;;12.17;7.77;;;10.50;99.90;;;;;;5445772;26;20470;-70
2024/04/14 05:08:33;;;;;;;11.73;7.40;;;10.50;99.90;;;;;;5446158;26;20527;-70
2024/04/14 05:11:06;;;;;;;12.70;8.47;;;10.50;99.90;;;;;;5448495;26;20572;-71
2024/04/14 05:13:33;;;;;;;13.20;7.80;;;10.50;99.90;;;;;;5447437;26;20477;-70
2024/04/14 05:16:03;;;;;;;11.00;6.90;;;10.70;99.90;;;;;;5447827;26;20473;-71
2024/04/14 05:18:31;;;;;;;11.23;7.53;;;10.90;99.90;;;;;;5447945;26;21315;-70
2024/04/14 05:21:01;;;;;;;14.03;8.03;;;10.90;99.90;;;;;;5448110;26;20460;-71
2024/04/14 05:23:28;;;;;;;12.50;7.40;;;10.90;99.90;;;;;;5447766;26;21072;-71
2024/04/14 05:25:57;;;;;;;11.57;7.47;;;11.00;99.90;;;;;;5447636;26;20471;-71
2024/04/14 05:28:27;;;;;;;12.67;7.20;;;11.10;99.90;;;;;;5439328;26;20483;-70
2024/04/14 05:30:57;;;;;;;12.70;7.90;;;11.10;99.90;;;;;;5448001;26;20847;-70
2024/04/14 05:33:24;;;;;;;15.67;7.13;;;11.20;99.90;;;;;;5447281;26;20518;-71
2024/04/14 05:35:57;;;;;;;14.27;8.07;;;11.50;99.90;;;;;;5448079;26;20479;-71
2024/04/14 05:38:24;;;;;;;11.30;7.00;;;11.60;99.90;;;;;;5447322;26;20516;-71
2024/04/14 05:40:55;;;;;;;11.83;7.53;;;11.70;99.90;;;;;;5447732;26;20597;-71
2024/04/14 05:43:22;;;;;;;11.90;7.43;;;11.90;99.90;;;;;;5449636;26;20466;-69
2024/04/14 05:45:55;;;;;;;11.67;7.73;;;12.00;99.90;;;;;;5451006;26;20467;-71
2024/04/14 05:48:22;;;;;;;13.00;7.70;;;12.10;99.90;;;;;;5449624;26;20479;-71
2024/04/14 05:50:52;;;;;;;12.40;7.73;;;12.30;99.90;;;;;;5448797;26;20512;-71
2024/04/14 05:53:19;;;;;;;11.80;7.80;;;12.50;99.90;;;;;;5448510;26;20467;-70
2024/04/14 05:55:49;;;;;;;14.30;7.93;;;12.70;99.90;;;;;;5448461;26;20468;-71
2024/04/14 05:58:16;;;;;;;12.50;7.17;;;12.80;99.90;;;;;;5447840;26;20482;-71
2024/04/14 06:00:46;;;;;;;13.73;8.17;;;12.90;99.90;;;;;;5448385;26;21107;-72
2024/04/14 06:03:16;;;;;;;14.03;7.30;;;13.10;99.90;;;;;;5446914;26;20464;-71
2024/04/14 06:05:50;;;;;;;12.87;7.27;;;13.30;99.90;;;;;;5447673;26;20521;-71
2024/04/14 06:08:17;;;;;;;13.30;7.17;;;13.40;99.90;;;;;;5447472;26;20487;-71
2024/04/14 06:10:46;;;;;;;13.27;7.80;;;13.40;99.90;;;;;;5447474;26;20582;-70
2024/04/14 06:13:14;;;;;;;13.27;7.50;;;13.30;99.90;;;;;;5446677;26;20456;-71
2024/04/14 06:15:43;;;;;;;12.57;7.73;;;13.50;99.90;;;;;;5447153;26;20508;-71
2024/04/14 06:18:18;;;;;;;12.70;7.23;;;13.60;99.90;;;;;;5446546;26;20473;-70
2024/04/14 06:20:47;;;;;;;14.07;8.10;;;13.80;99.90;;;;;;5446982;26;20540;-70
2024/04/14 06:23:14;;;;;;;12.80;7.70;;;13.80;99.90;;;;;;5446642;26;20469;-70
2024/04/14 06:25:49;;;;;;;12.53;7.40;;;13.70;99.90;;;;;;5447436;26;20473;-71
2024/04/14 06:28:16;;;;;;;14.83;8.17;;;13.80;99.90;;;;;;5438616;26;21035;-70
2024/04/14 06:30:46;;;;;;;11.80;7.40;;;13.90;99.90;;;;;;5446888;26;20478;-69
2024/04/14 06:33:13;;;;;;;11.00;7.03;;;14.00;99.90;;;;;;5446144;26;20471;-71
2024/04/14 06:35:45;;;;;;;12.43;7.03;;;14.20;99.90;;;;;;5447205;26;20468;-71
2024/04/14 06:38:12;;;;;;;13.10;7.83;;;14.40;99.90;;;;;;5446306;26;20532;-71
2024/04/14 06:40:42;;;;;;;15.00;7.80;;;14.50;99.90;;;;;;5447660;26;20813;-71
2024/04/14 06:43:09;;;;;;;11.90;7.20;;;14.70;99.90;;;;;;5446612;26;20813;-70
2024/04/14 06:45:39;;;;;;;13.80;7.30;;;14.80;99.90;;;;;;5446792;26;20475;-71
2024/04/14 06:48:06;;;;;;;11.87;6.70;;;14.90;99.90;;;;;;5445735;26;21425;-71
2024/04/14 06:50:36;;;;;;;11.23;7.27;;;15.00;99.90;;;;;;5444022;26;21491;-71
2024/04/14 06:53:06;;;;;;;10.83;6.23;;;15.20;99.90;;;;;;5443461;26;20467;-69
2024/04/14 06:55:35;;;;;;;11.60;6.97;;;15.30;99.90;;;;;;5443685;26;20471;-69
2024/04/14 06:58:03;;;;;;;11.27;5.90;;;15.40;99.90;;;;;;5443248;26;20846;-71
2024/04/14 07:00:32;;;;;;;11.20;6.90;;;15.50;99.90;;;;;;5443883;26;20610;-71
2024/04/14 07:02:59;;;;;;;12.10;5.80;;;15.60;99.90;;;;;;5442865;26;20577;-69
2024/04/14 07:05:29;;;;;;;12.13;6.30;;;15.80;99.90;;;;;;5443164;26;20516;-70
2024/04/14 07:07:56;;;;;;;13.50;7.00;;;15.90;99.90;;;;;;5443093;26;20456;-71
2024/04/14 07:10:28;;;;;;;11.00;5.67;;;16.10;99.90;;;;;;5443649;26;20529;-69
2024/04/14 07:12:55;;;;;;;11.37;6.33;;;16.20;99.90;;;;;;5442825;26;21129;-69
2024/04/14 07:15:25;;;;;;;11.47;6.60;;;16.30;99.90;;;;;;5442438;26;20471;-70
2024/04/14 07:17:53;;;;;;;11.77;6.83;;;16.50;99.90;;;;;;5442753;26;20514;-71
2024/04/14 07:20:23;;;;;;;11.67;6.37;;;16.80;99.90;;;;;;5445218;26;21087;-70
2024/04/14 07:22:50;;;;;;;14.83;7.57;;;16.90;99.90;;;;;;5445484;26;20456;-68
2024/04/14 07:25:19;;;;;;;12.97;7.30;;;17.30;99.90;;;;;;5445121;26;20531;-71
2024/04/14 07:27:49;;;;;;;12.70;7.60;;;17.40;99.90;;;;;;5444828;26;20470;-70
2024/04/14 07:30:20;;;;;;;13.23;6.43;;;17.40;99.90;;;;;;5445147;26;20880;-71
2024/04/14 07:32:47;;;;;;;11.93;7.00;;;17.40;99.90;;;;;;5445145;26;20523;-71
2024/04/14 07:35:17;;;;;;;12.03;6.70;;;17.50;99.90;;;;;;5436083;26;20524;-70
2024/04/14 07:37:44;;;;;;;11.37;6.33;;;17.80;99.90;;;;;;5444875;26;20527;-69
2024/04/14 07:40:14;;;;;;;11.20;5.90;;;17.90;99.90;;;;;;5445385;26;20508;-70
2024/04/14 07:42:41;;;;;;;12.03;6.13;;;18.20;99.90;;;;;;5442962;26;20521;-71
2024/04/14 07:45:14;;;;;;;10.30;5.67;;;18.30;99.90;;;;;;5444718;26;20806;-70
2024/04/14 07:47:41;;;;;;;10.37;6.30;;;18.40;99.90;;;;;;5444602;26;20475;-70
2024/04/14 07:50:13;;;;;;;12.73;5.10;;;18.60;99.90;;;;;;5444477;26;20926;-70
2024/04/14 07:52:40;;;;;;;11.43;5.47;;;18.70;99.90;;;;;;5444593;26;20566;-70
2024/04/14 07:55:11;;;;;;;11.33;6.37;;;18.90;99.90;;;;;;5444250;26;20516;-70
2024/04/14 07:57:38;;;;;;;11.83;6.63;;;19.10;99.90;;;;;;5444329;26;20589;-70
2024/04/14 08:00:10;;;;;;;10.80;6.00;;;19.10;99.90;;;;;;5445035;26;20527;-71
2024/04/14 08:02:42;;;;;;;9.33;5.20;;;19.30;99.90;;;;;;5444537;26;20471;-70
2024/04/14 08:05:11;;;;;;;10.40;5.33;;;19.40;99.90;;;;;;5443852;26;20584;-71
2024/04/14 08:07:39;;;;;;;9.23;4.20;;;19.60;99.90;;;;;;5444090;26;20483;-72
2024/04/14 08:10:09;;;;;;;9.73;4.50;;;19.80;99.90;;;;;;5444267;26;20463;-70
2024/04/14 08:12:36;;;;;;;10.10;4.80;;;20.00;99.90;;;;;;5444698;26;20479;-71
2024/04/14 08:15:07;;;;;;;10.50;4.30;;;20.20;99.90;;;;;;5443798;26;20523;-71
2024/04/14 08:17:34;;;;;;;8.40;3.90;;;20.30;99.90;;;;;;5443875;26;20476;-68
2024/04/14 08:20:07;;;;;;;9.57;5.00;;;20.60;99.90;;;;;;5444037;26;20471;-71
2024/04/14 08:22:34;;;;;;;9.40;4.60;;;20.70;99.90;;;;;;5444689;26;20515;-73
2024/04/14 08:25:04;;;;;;;10.17;4.23;;;20.80;99.90;;;;;;5443840;26;20467;-70
2024/04/14 08:27:31;;;;;;;11.00;4.00;;;20.90;99.90;;;;;;5434785;26;20483;-71
2024/04/14 08:30:01;;;;;;;8.47;4.10;;;21.10;99.90;;;;;;5447028;26;20463;-71
2024/04/14 08:32:28;;;;;;;9.13;3.67;;;21.20;99.90;;;;;;5447157;26;21043;-71
2024/04/14 08:34:58;;;;;;;8.80;3.53;;;21.50;99.60;;;;;;5442917;26;20527;-70
2024/04/14 08:37:28;;;;;;;10.97;4.30;;;21.70;98.80;;;;;;5446461;26;20471;-70
2024/04/14 08:39:57;;;;;;;11.30;3.60;;;21.70;98.40;;;;;;5447211;26;20523;-70
2024/04/14 08:42:25;;;;;;;10.33;3.33;;;21.80;95.50;;;;;;5447533;26;20565;-71
2024/04/14 08:44:56;;;;;;;8.47;3.20;;;21.90;94.90;;;;;;5437980;26;20463;-70
2024/04/14 08:47:23;;;;;;;11.60;4.00;;;22.00;94.20;;;;;;5446947;26;20475;-71
2024/04/14 08:49:54;;;;;;;9.70;4.10;;;22.00;95.30;;;;;;5446845;26;20467;-70
2024/04/14 08:52:29;;;;;;;9.10;3.57;;;21.80;96.50;;;;;;5446766;26;20483;-69
2024/04/14 08:54:59;;;;;;;8.87;3.73;;;22.00;96.70;;;;;;5446767;26;20459;-69
2024/04/14 08:57:27;;;;;;;10.27;4.10;;;22.20;97.40;;;;;;5446355;26;21049;-69
2024/04/14 09:00:00;;;;;;;8.90;3.33;;;22.20;95.70;;;;;;5446860;26;21351;-70
2024/04/14 09:02:31;;;;;;;10.10;2.77;;;22.50;94.00;;;;;;5445254;26;20592;-70
2024/04/14 09:05:01;;;;;;;8.17;2.70;;;22.70;96.40;;;;;;5446229;26;20887;-70
2024/04/14 09:07:31;;;;;;;9.33;2.60;;;22.80;95.10;;;;;;5446199;26;20857;-68
2024/04/14 09:10:00;;;;;;;9.63;3.40;;;23.00;96.20;;;;;;5446706;26;20520;-69
2024/04/14 09:12:30;;;;;;;9.10;3.27;;;23.10;94.10;;;;;;5447027;26;20471;-67
2024/04/14 09:14:59;;;;;;;9.20;3.00;;;22.80;92.70;;;;;;5446255;26;21261;-68
2024/04/14 09:17:27;;;;;;;8.33;2.77;;;22.50;94.00;;;;;;5446009;26;20581;-69
2024/04/14 09:19:58;;;;;;;8.60;3.13;;;22.40;94.40;;;;;;5447186;26;20460;-69
2024/04/14 09:22:25;;;;;;;7.90;3.00;;;22.60;94.80;;;;;;5434607;26;20472;-69
2024/04/14 09:24:58;;;;;;;7.43;2.77;;;22.70;93.10;;;;;;5430755;26;21090;-69
2024/04/14 09:27:25;;;;;;;10.40;3.73;;;23.00;93.50;;;;;;5434260;26;20813;-69
2024/04/14 09:29:56;;;;;;;8.63;3.07;;;23.00;92.10;;;;;;5439074;26;21095;-68
2024/04/14 09:32:23;;;;;;;9.20;2.73;;;23.10;92.20;;;;;;5445622;26;20471;-69
2024/04/14 09:34:54;;;;;;;9.50;3.60;;;23.20;91.30;;;;;;5444986;26;20467;-68
2024/04/14 09:37:21;;;;;;;9.50;3.00;;;23.30;90.30;;;;;;5444366;26;20537;-69
2024/04/14 09:39:52;;;;;;;9.17;3.03;;;23.60;91.00;;;;;;5445536;26;20694;-69
2024/04/14 09:42:22;;;;;;;9.70;3.13;;;23.70;90.30;;;;;;5445263;26;20523;-68
2024/04/14 09:44:54;;;;;;;10.13;3.23;;;23.80;89.70;;;;;;5442115;26;20519;-68
2024/04/14 09:47:21;;;;;;;7.97;2.53;;;24.00;89.10;;;;;;5444744;26;21021;-68
2024/04/14 09:49:54;;;;;;;8.03;2.97;;;24.10;90.60;;;;;;5442610;26;20456;-68
2024/04/14 09:52:22;;;;;;;9.37;2.70;;;24.10;87.60;;;;;;5444049;26;20546;-68
2024/04/14 09:54:53;;;;;;;9.23;2.90;;;23.60;89.10;;;;;;5442746;26;21111;-68
2024/04/14 09:57:23;;;;;;;9.30;3.20;;;23.40;90.30;;;;;;5442713;26;20532;-68
2024/04/14 09:59:53;;;;;;;8.80;3.10;;;23.40;90.50;;;;;;5441678;26;20463;-69
2024/04/14 10:02:26;;;;;;;7.70;2.80;;;23.50;89.10;;;;;;5440294;26;20475;-68
2024/04/14 10:04:57;;;;;;;8.50;2.63;;;23.70;88.90;;;;;;5434218;26;20880;-69
2024/04/14 10:07:24;;;;;;;9.30;3.00;;;23.90;87.00;;;;;;5438116;26;20539;-70
2024/04/14 10:09:56;;;;;;;9.67;3.20;;;24.00;86.10;;;;;;5438627;26;20564;-69
2024/04/14 10:12:26;;;;;;;10.30;3.60;;;24.10;86.40;;;;;;5438884;26;20459;-69
2024/04/14 10:14:57;;;;;;;10.47;3.77;;;24.50;85.80;;;;;;5440194;26;20526;-68
2024/04/14 10:17:28;;;;;;;8.47;3.07;;;24.30;86.50;;;;;;5439948;26;20535;-69
2024/04/14 10:19:59;;;;;;;8.30;3.00;;;24.30;86.70;;;;;;5439972;26;20468;-68
2024/04/14 10:22:30;;;;;;;8.73;3.40;;;24.30;85.00;;;;;;5439767;26;20467;-68
2024/04/14 10:25:00;;;;;;;7.50;2.60;;;24.20;85.00;;;;;;5441042;26;21083;-69
2024/04/14 10:27:34;;;;;;;9.50;3.00;;;24.60;84.80;;;;;;5437748;26;20606;-71
2024/04/14 10:30:05;;;;;;;8.57;3.73;;;25.10;86.00;;;;;;5437912;26;20523;-68
2024/04/14 10:32:32;;;;;;;11.83;3.30;;;25.40;82.80;;;;;;5439299;26;21322;-69
2024/04/14 10:35:02;;;;;;;7.80;3.10;;;25.20;80.30;;;;;;5440366;26;20513;-68
2024/04/14 10:37:30;;;;;;;8.10;2.70;;;25.10;80.40;;;;;;5440155;26;20834;-67
2024/04/14 10:40:01;;;;;;;8.70;2.80;;;24.90;81.80;;;;;;5440074;26;21061;-68
2024/04/14 10:42:32;;;;;;;10.40;2.37;;;24.90;81.50;;;;;;5439954;26;20555;-68
2024/04/14 10:45:02;;;;;;;8.50;2.90;;;24.90;81.10;;;;;;5440533;26;20541;-66
2024/04/14 10:47:32;;;;;;;8.47;2.60;;;25.00;81.30;;;;;;5440351;26;20911;-68
2024/04/14 10:50:02;;;;;;;8.40;2.83;;;25.00;80.70;;;;;;5440097;26;20479;-67
2024/04/14 10:52:29;;;;;;;8.80;3.10;;;25.20;80.00;;;;;;5439540;26;20519;-68
2024/04/14 10:54:59;;;;;;;8.50;3.03;;;25.30;80.30;;;;;;5441364;26;21269;-69
2024/04/14 10:57:26;;;;;;;7.70;2.90;;;25.30;79.10;;;;;;5435966;26;20475;-68
2024/04/14 10:59:59;;;;;;;9.20;3.10;;;25.30;77.90;;;;;;5439153;26;20524;-69
2024/04/14 11:02:26;;;;;;;7.63;2.77;;;25.20;79.00;;;;;;5438891;26;20471;-68
2024/04/14 11:04:56;;;;;;;8.33;3.10;;;25.40;79.40;;;;;;5439751;26;20467;-68
2024/04/14 11:07:23;;;;;;;8.97;3.27;;;25.60;77.30;;;;;;5438784;26;20483;-68
2024/04/14 11:09:54;;;;;;;7.43;2.73;;;25.10;75.50;;;;;;5439216;26;20456;-68
2024/04/14 11:12:21;;;;;;;7.80;3.20;;;25.00;75.90;;;;;;5439372;26;21092;-68
2024/04/14 11:14:51;;;;;;;11.57;2.97;;;24.90;75.90;;;;;;5439083;26;20464;-69
2024/04/14 11:17:22;;;;;;;9.37;2.93;;;24.90;78.00;;;;;;5438178;26;20475;-69
2024/04/14 11:19:52;;;;;;;9.17;2.73;;;25.00;78.00;;;;;;5439645;26;20523;-69
2024/04/14 11:22:20;;;;;;;8.70;2.63;;;25.10;75.30;;;;;;5439682;26;20536;-69
2024/04/14 11:24:53;;;;;;;8.90;2.47;;;25.20;74.40;;;;;;5435985;26;20471;-70
2024/04/14 11:27:20;;;;;;;7.67;2.83;;;25.60;77.70;;;;;;5438077;26;21177;-70
2024/04/14 11:29:50;;;;;;;8.00;2.73;;;25.70;75.00;;;;;;5437968;26;20857;-68
2024/04/14 11:32:33;;;;;;;8.03;2.70;;;26.00;72.40;;;;;;5438534;26;20460;-69
2024/04/14 11:35:05;;;;;;;9.30;2.63;;;25.90;72.40;;;;;;5438407;26;21051;-69
2024/04/14 11:37:35;;;;;;;8.93;2.80;;;26.00;72.70;;;;;;5437597;26;20471;-70
2024/04/14 11:40:07;;;;;;;8.40;2.90;;;26.00;73.60;;;;;;5436640;26;20459;-70
2024/04/14 11:42:38;;;;;;;10.70;3.03;;;26.20;70.20;;;;;;5438712;26;20578;-69
2024/04/14 11:45:12;;;;;;;8.40;3.03;;;26.40;70.00;;;;;;5438826;26;20471;-69
2024/04/14 11:47:42;;;;;;;8.23;2.40;;;26.40;71.40;;;;;;5439222;26;20467;-70
2024/04/14 11:50:12;;;;;;;7.30;2.60;;;26.30;69.60;;;;;;5439422;26;20531;-70
2024/04/14 11:52:39;;;;;;;7.57;2.60;;;26.20;70.80;;;;;;5439362;26;20523;-69
2024/04/14 11:55:11;;;;;;;8.90;2.60;;;26.70;69.20;;;;;;5436112;26;20471;-69
2024/04/14 11:57:38;;;;;;;8.07;2.70;;;27.10;65.80;;;;;;5438488;26;21162;-70
2024/04/14 12:00:09;;;;;;;9.57;3.17;;;27.20;64.50;;;;;;5439196;26;20538;-69
2024/04/14 12:02:36;;;;;;;7.73;2.70;;;26.80;64.00;;;;;;5438984;26;20467;-69
2024/04/14 12:05:09;;;;;;;8.17;2.77;;;26.80;64.10;;;;;;5438620;26;20475;-70
2024/04/14 12:07:36;;;;;;;9.40;2.90;;;27.30;64.30;;;;;;5437379;26;21440;-69
2024/04/14 12:10:07;;;;;;;8.03;2.90;;;27.40;64.70;;;;;;5438937;26;20463;-70
2024/04/14 12:12:34;;;;;;;8.90;3.20;;;27.50;64.70;;;;;;5438053;26;21203;-69
2024/04/14 12:15:05;;;;;;;9.00;3.17;;;27.40;63.50;;;;;;5436179;26;20561;-70
2024/04/14 12:17:32;;;;;;;7.30;2.43;;;27.30;64.20;;;;;;5443056;26;20530;-70
2024/04/14 12:20:02;;;;;;;9.10;3.37;;;26.80;64.60;;;;;;5438814;26;20523;-69
2024/04/14 12:22:32;;;;;;;7.80;2.90;;;26.60;68.70;;;;;;5436373;26;21011;-69
2024/04/14 12:25:01;;;;;;;8.60;3.13;;;27.10;66.40;;;;;;5438446;26;20455;-68
2024/04/14 12:27:29;;;;;;;8.03;2.50;;;27.10;64.10;;;;;;5437088;26;20535;-69
2024/04/14 12:29:59;;;;;;;10.10;3.17;;;27.20;63.00;;;;;;5442508;26;20475;-68
2024/04/14 12:32:27;;;;;;;7.87;2.40;;;27.20;62.80;;;;;;5438203;26;20577;-69
2024/04/14 12:34:59;;;;;;;7.00;2.60;;;26.80;63.60;;;;;;5436590;26;20518;-69
2024/04/14 12:37:27;;;;;;;8.83;3.00;;;26.70;62.20;;;;;;5438185;26;20463;-69
2024/04/14 12:39:59;;;;;;;7.90;2.57;;;26.50;63.10;;;;;;5436679;26;20585;-69
2024/04/14 12:42:26;;;;;;;14.10;3.60;;;26.10;64.00;;;;;;5435445;26;20524;-70
2024/04/14 12:44:56;;;;;;;8.90;2.70;;;26.10;63.20;;;;;;5437955;26;20523;-70
2024/04/14 12:47:23;;;;;;;9.50;3.57;;;25.90;65.30;;;;;;5437580;26;21073;-69